sensor_id;sensor_type;location;lat;lon;timestamp;P1;durP1;ratioP1;P2;durP2;ratioP2
24897;SDS011;12957;49.434;8.684;2022-08-21T00:00:12;5.07;;;2.95;;
24897;SDS011;12957;49.434;8.684;2022-08-21T00:02:50;4.57;;;3.25;;
24897;SDS011;12957;49.434;8.684;2022-08-21T00:05:20;13.70;;;3.50;;
24897;SDS011;12957;49.434;8.684;2022-08-21T00:07:46;4.55;;;3.53;;
24897;SDS011;12957;49.434;8.684;2022-08-21T00:10:12;7.05;;;4.20;;
24897;SDS011;12957;49.434;8.684;2022-08-21T00:12:38;5.03;;;3.70;;
24897;SDS011;12957;49.434;8.684;2022-08-21T00:15:05;8.85;;;3.53;;
24897;SDS011;12957;49.434;8.684;2022-08-21T00:17:31;6.00;;;3.70;;
24897;SDS011;12957;49.434;8.684;2022-08-21T00:19:57;4.72;;;3.60;;
24897;SDS011;12957;49.434;8.684;2022-08-21T00:22:22;4.70;;;3.17;;
24897;SDS011;12957;49.434;8.684;2022-08-21T00:24:47;4.68;;;3.38;;
24897;SDS011;12957;49.434;8.684;2022-08-21T00:27:13;5.43;;;3.63;;
24897;SDS011;12957;49.434;8.684;2022-08-21T00:29:38;3.45;;;3.15;;
24897;SDS011;12957;49.434;8.684;2022-08-21T00:32:04;3.92;;;3.22;;
24897;SDS011;12957;49.434;8.684;2022-08-21T00:34:30;3.72;;;3.00;;
24897;SDS011;12957;49.434;8.684;2022-08-21T00:36:55;6.50;;;3.28;;
24897;SDS011;12957;49.434;8.684;2022-08-21T00:39:21;3.53;;;3.00;;
24897;SDS011;12957;49.434;8.684;2022-08-21T00:41:47;3.42;;;2.95;;
24897;SDS011;12957;49.434;8.684;2022-08-21T00:44:13;4.03;;;3.10;;
24897;SDS011;12957;49.434;8.684;2022-08-21T00:46:39;4.07;;;3.10;;
24897;SDS011;12957;49.434;8.684;2022-08-21T00:49:05;5.93;;;3.20;;
24897;SDS011;12957;49.434;8.684;2022-08-21T00:51:36;3.38;;;3.08;;
24897;SDS011;12957;49.434;8.684;2022-08-21T00:54:05;9.38;;;3.33;;
24897;SDS011;12957;49.434;8.684;2022-08-21T00:56:31;3.28;;;2.97;;
24897;SDS011;12957;49.434;8.684;2022-08-21T00:58:56;4.22;;;3.08;;
24897;SDS011;12957;49.434;8.684;2022-08-21T01:01:23;4.75;;;3.17;;
24897;SDS011;12957;49.434;8.684;2022-08-21T01:03:48;4.15;;;2.97;;
24897;SDS011;12957;49.434;8.684;2022-08-21T01:06:14;6.57;;;3.38;;
24897;SDS011;12957;49.434;8.684;2022-08-21T01:08:40;6.10;;;3.45;;
24897;SDS011;12957;49.434;8.684;2022-08-21T01:11:05;5.47;;;3.42;;
24897;SDS011;12957;49.434;8.684;2022-08-21T01:13:32;3.28;;;2.97;;
24897;SDS011;12957;49.434;8.684;2022-08-21T01:16:03;4.85;;;3.13;;
24897;SDS011;12957;49.434;8.684;2022-08-21T01:18:29;5.13;;;3.63;;
24897;SDS011;12957;49.434;8.684;2022-08-21T01:20:58;3.83;;;3.22;;
24897;SDS011;12957;49.434;8.684;2022-08-21T01:23:34;6.07;;;3.60;;
24897;SDS011;12957;49.434;8.684;2022-08-21T01:26:01;7.93;;;3.67;;
24897;SDS011;12957;49.434;8.684;2022-08-21T01:28:27;5.38;;;3.70;;
24897;SDS011;12957;49.434;8.684;2022-08-21T01:30:55;4.13;;;3.17;;
24897;SDS011;12957;49.434;8.684;2022-08-21T01:33:21;5.10;;;3.72;;
24897;SDS011;12957;49.434;8.684;2022-08-21T01:35:47;4.97;;;3.60;;
24897;SDS011;12957;49.434;8.684;2022-08-21T01:38:12;4.35;;;3.15;;
24897;SDS011;12957;49.434;8.684;2022-08-21T01:40:38;4.32;;;3.50;;
24897;SDS011;12957;49.434;8.684;2022-08-21T01:43:04;3.83;;;3.22;;
24897;SDS011;12957;49.434;8.684;2022-08-21T01:45:30;4.88;;;3.90;;
24897;SDS011;12957;49.434;8.684;2022-08-21T01:47:55;4.32;;;3.92;;
24897;SDS011;12957;49.434;8.684;2022-08-21T01:50:21;5.07;;;3.60;;
24897;SDS011;12957;49.434;8.684;2022-08-21T01:52:48;4.95;;;3.63;;
24897;SDS011;12957;49.434;8.684;2022-08-21T01:55:14;5.25;;;3.88;;
24897;SDS011;12957;49.434;8.684;2022-08-21T01:57:40;5.82;;;3.15;;
24897;SDS011;12957;49.434;8.684;2022-08-21T02:00:08;4.65;;;4.05;;
24897;SDS011;12957;49.434;8.684;2022-08-21T02:02:35;6.55;;;3.67;;
24897;SDS011;12957;49.434;8.684;2022-08-21T02:05:01;4.32;;;3.40;;
24897;SDS011;12957;49.434;8.684;2022-08-21T02:07:34;4.65;;;3.72;;
24897;SDS011;12957;49.434;8.684;2022-08-21T02:10:01;5.10;;;3.90;;
24897;SDS011;12957;49.434;8.684;2022-08-21T02:12:26;4.82;;;3.85;;
24897;SDS011;12957;49.434;8.684;2022-08-21T02:14:52;4.65;;;3.42;;
24897;SDS011;12957;49.434;8.684;2022-08-21T02:17:17;13.10;;;3.75;;
24897;SDS011;12957;49.434;8.684;2022-08-21T02:19:43;5.43;;;3.83;;
24897;SDS011;12957;49.434;8.684;2022-08-21T02:22:08;6.22;;;3.30;;
24897;SDS011;12957;49.434;8.684;2022-08-21T02:24:34;3.83;;;3.50;;
24897;SDS011;12957;49.434;8.684;2022-08-21T02:27:00;5.68;;;4.10;;
24897;SDS011;12957;49.434;8.684;2022-08-21T02:29:26;4.22;;;3.58;;
24897;SDS011;12957;49.434;8.684;2022-08-21T02:31:51;7.07;;;3.72;;
24897;SDS011;12957;49.434;8.684;2022-08-21T02:34:18;5.50;;;3.88;;
24897;SDS011;12957;49.434;8.684;2022-08-21T02:36:44;7.20;;;3.70;;
24897;SDS011;12957;49.434;8.684;2022-08-21T02:39:09;4.63;;;4.10;;
24897;SDS011;12957;49.434;8.684;2022-08-21T02:41:35;5.32;;;4.50;;
24897;SDS011;12957;49.434;8.684;2022-08-21T02:44:00;5.55;;;4.00;;
24897;SDS011;12957;49.434;8.684;2022-08-21T02:46:25;6.28;;;4.57;;
24897;SDS011;12957;49.434;8.684;2022-08-21T02:48:51;7.00;;;4.63;;
24897;SDS011;12957;49.434;8.684;2022-08-21T02:51:17;5.35;;;4.45;;
24897;SDS011;12957;49.434;8.684;2022-08-21T02:53:45;6.45;;;4.70;;
24897;SDS011;12957;49.434;8.684;2022-08-21T02:56:13;6.45;;;4.80;;
24897;SDS011;12957;49.434;8.684;2022-08-21T02:58:41;6.40;;;4.68;;
24897;SDS011;12957;49.434;8.684;2022-08-21T03:01:08;8.18;;;4.68;;
24897;SDS011;12957;49.434;8.684;2022-08-21T03:03:35;6.47;;;4.03;;
24897;SDS011;12957;49.434;8.684;2022-08-21T03:06:05;5.50;;;4.22;;
24897;SDS011;12957;49.434;8.684;2022-08-21T03:08:31;6.25;;;4.20;;
24897;SDS011;12957;49.434;8.684;2022-08-21T03:10:56;6.35;;;4.30;;
24897;SDS011;12957;49.434;8.684;2022-08-21T03:13:22;7.45;;;4.97;;
24897;SDS011;12957;49.434;8.684;2022-08-21T03:15:48;9.23;;;4.90;;
24897;SDS011;12957;49.434;8.684;2022-08-21T03:18:14;5.13;;;4.53;;
24897;SDS011;12957;49.434;8.684;2022-08-21T03:20:40;5.25;;;4.50;;
24897;SDS011;12957;49.434;8.684;2022-08-21T03:23:06;5.85;;;4.88;;
24897;SDS011;12957;49.434;8.684;2022-08-21T03:25:32;6.82;;;4.70;;
24897;SDS011;12957;49.434;8.684;2022-08-21T03:27:59;6.75;;;4.68;;
24897;SDS011;12957;49.434;8.684;2022-08-21T03:30:27;9.35;;;4.68;;
24897;SDS011;12957;49.434;8.684;2022-08-21T03:32:53;6.05;;;4.80;;
24897;SDS011;12957;49.434;8.684;2022-08-21T03:35:19;6.85;;;4.68;;
24897;SDS011;12957;49.434;8.684;2022-08-21T03:37:45;9.07;;;5.30;;
24897;SDS011;12957;49.434;8.684;2022-08-21T03:40:11;5.80;;;5.13;;
24897;SDS011;12957;49.434;8.684;2022-08-21T03:42:38;7.03;;;4.50;;
24897;SDS011;12957;49.434;8.684;2022-08-21T03:45:04;5.75;;;4.82;;
24897;SDS011;12957;49.434;8.684;2022-08-21T03:47:29;6.80;;;4.88;;
24897;SDS011;12957;49.434;8.684;2022-08-21T03:49:55;7.70;;;4.80;;
24897;SDS011;12957;49.434;8.684;2022-08-21T03:52:21;7.13;;;4.88;;
24897;SDS011;12957;49.434;8.684;2022-08-21T03:54:46;7.45;;;4.90;;
24897;SDS011;12957;49.434;8.684;2022-08-21T03:57:12;6.47;;;4.93;;
24897;SDS011;12957;49.434;8.684;2022-08-21T03:59:38;8.85;;;5.05;;
24897;SDS011;12957;49.434;8.684;2022-08-21T04:02:05;7.15;;;4.90;;
24897;SDS011;12957;49.434;8.684;2022-08-21T04:04:31;7.25;;;4.90;;
24897;SDS011;12957;49.434;8.684;2022-08-21T04:06:57;6.43;;;4.53;;
24897;SDS011;12957;49.434;8.684;2022-08-21T04:09:23;6.82;;;5.00;;
24897;SDS011;12957;49.434;8.684;2022-08-21T04:11:48;8.80;;;5.05;;
24897;SDS011;12957;49.434;8.684;2022-08-21T04:14:14;6.85;;;4.85;;
24897;SDS011;12957;49.434;8.684;2022-08-21T04:16:41;8.23;;;5.32;;
24897;SDS011;12957;49.434;8.684;2022-08-21T04:19:07;8.27;;;5.13;;
24897;SDS011;12957;49.434;8.684;2022-08-21T04:21:33;7.07;;;5.15;;
24897;SDS011;12957;49.434;8.684;2022-08-21T04:23:59;8.07;;;5.47;;
24897;SDS011;12957;49.434;8.684;2022-08-21T04:26:25;5.85;;;4.82;;
24897;SDS011;12957;49.434;8.684;2022-08-21T04:28:51;6.60;;;5.10;;
24897;SDS011;12957;49.434;8.684;2022-08-21T04:31:17;5.18;;;4.40;;
24897;SDS011;12957;49.434;8.684;2022-08-21T04:33:42;6.13;;;5.13;;
24897;SDS011;12957;49.434;8.684;2022-08-21T04:36:08;10.52;;;4.97;;
24897;SDS011;12957;49.434;8.684;2022-08-21T04:38:34;12.52;;;5.28;;
24897;SDS011;12957;49.434;8.684;2022-08-21T04:40:59;6.75;;;5.13;;
24897;SDS011;12957;49.434;8.684;2022-08-21T04:43:25;7.05;;;5.13;;
24897;SDS011;12957;49.434;8.684;2022-08-21T04:45:51;6.10;;;4.55;;
24897;SDS011;12957;49.434;8.684;2022-08-21T04:48:18;8.25;;;4.90;;
24897;SDS011;12957;49.434;8.684;2022-08-21T04:53:18;7.40;;;5.38;;
24897;SDS011;12957;49.434;8.684;2022-08-21T04:55:44;6.55;;;5.15;;
24897;SDS011;12957;49.434;8.684;2022-08-21T04:58:11;9.48;;;4.85;;
24897;SDS011;12957;49.434;8.684;2022-08-21T05:00:38;7.55;;;5.00;;
24897;SDS011;12957;49.434;8.684;2022-08-21T05:03:04;5.93;;;4.47;;
24897;SDS011;12957;49.434;8.684;2022-08-21T05:05:30;8.88;;;4.60;;
24897;SDS011;12957;49.434;8.684;2022-08-21T05:07:56;9.48;;;4.78;;
24897;SDS011;12957;49.434;8.684;2022-08-21T05:10:22;4.82;;;4.38;;
24897;SDS011;12957;49.434;8.684;2022-08-21T05:12:48;7.72;;;4.53;;
24897;SDS011;12957;49.434;8.684;2022-08-21T05:15:13;8.68;;;4.70;;
24897;SDS011;12957;49.434;8.684;2022-08-21T05:17:40;6.10;;;4.28;;
24897;SDS011;12957;49.434;8.684;2022-08-21T05:20:07;8.80;;;4.47;;
24897;SDS011;12957;49.434;8.684;2022-08-21T05:22:33;4.47;;;4.05;;
24897;SDS011;12957;49.434;8.684;2022-08-21T05:24:59;9.85;;;4.93;;
24897;SDS011;12957;49.434;8.684;2022-08-21T05:27:24;6.55;;;4.03;;
24897;SDS011;12957;49.434;8.684;2022-08-21T05:29:50;6.63;;;4.72;;
24897;SDS011;12957;49.434;8.684;2022-08-21T05:32:16;6.05;;;4.28;;
24897;SDS011;12957;49.434;8.684;2022-08-21T05:34:41;6.80;;;4.65;;
24897;SDS011;12957;49.434;8.684;2022-08-21T05:37:07;9.10;;;4.20;;
24897;SDS011;12957;49.434;8.684;2022-08-21T05:39:35;5.90;;;4.15;;
24897;SDS011;12957;49.434;8.684;2022-08-21T05:42:01;9.55;;;4.20;;
24897;SDS011;12957;49.434;8.684;2022-08-21T05:44:26;6.18;;;3.60;;
24897;SDS011;12957;49.434;8.684;2022-08-21T05:46:52;3.92;;;3.42;;
24897;SDS011;12957;49.434;8.684;2022-08-21T05:49:17;4.78;;;3.50;;
24897;SDS011;12957;49.434;8.684;2022-08-21T05:51:43;5.13;;;3.25;;
24897;SDS011;12957;49.434;8.684;2022-08-21T05:54:08;4.95;;;3.33;;
24897;SDS011;12957;49.434;8.684;2022-08-21T05:56:34;5.45;;;2.97;;
24897;SDS011;12957;49.434;8.684;2022-08-21T05:59:00;5.55;;;3.10;;
24897;SDS011;12957;49.434;8.684;2022-08-21T06:01:25;5.80;;;3.33;;
24897;SDS011;12957;49.434;8.684;2022-08-21T06:03:51;3.13;;;2.92;;
24897;SDS011;12957;49.434;8.684;2022-08-21T06:06:16;2.75;;;2.55;;
24897;SDS011;12957;49.434;8.684;2022-08-21T06:08:42;4.20;;;2.95;;
24897;SDS011;12957;49.434;8.684;2022-08-21T06:11:08;2.78;;;2.50;;
24897;SDS011;12957;49.434;8.684;2022-08-21T06:13:34;4.90;;;3.00;;
24897;SDS011;12957;49.434;8.684;2022-08-21T06:16:18;3.00;;;2.60;;
24897;SDS011;12957;49.434;8.684;2022-08-21T06:18:44;4.95;;;3.20;;
24897;SDS011;12957;49.434;8.684;2022-08-21T06:21:10;4.10;;;3.08;;
24897;SDS011;12957;49.434;8.684;2022-08-21T06:23:36;3.78;;;2.55;;
24897;SDS011;12957;49.434;8.684;2022-08-21T06:26:02;3.90;;;3.33;;
24897;SDS011;12957;49.434;8.684;2022-08-21T06:28:29;5.88;;;3.17;;
24897;SDS011;12957;49.434;8.684;2022-08-21T06:30:55;4.72;;;3.10;;
24897;SDS011;12957;49.434;8.684;2022-08-21T06:33:21;3.80;;;3.30;;
24897;SDS011;12957;49.434;8.684;2022-08-21T06:35:46;4.25;;;2.95;;
24897;SDS011;12957;49.434;8.684;2022-08-21T06:38:13;5.57;;;3.38;;
24897;SDS011;12957;49.434;8.684;2022-08-21T06:40:38;7.10;;;3.78;;
24897;SDS011;12957;49.434;8.684;2022-08-21T06:43:05;6.90;;;3.58;;
24897;SDS011;12957;49.434;8.684;2022-08-21T06:45:35;6.10;;;4.03;;
24897;SDS011;12957;49.434;8.684;2022-08-21T06:48:00;7.13;;;3.88;;
24897;SDS011;12957;49.434;8.684;2022-08-21T06:50:26;8.70;;;4.00;;
24897;SDS011;12957;49.434;8.684;2022-08-21T06:52:59;9.32;;;3.38;;
24897;SDS011;12957;49.434;8.684;2022-08-21T06:55:32;4.20;;;3.20;;
24897;SDS011;12957;49.434;8.684;2022-08-21T06:57:58;8.88;;;3.42;;
24897;SDS011;12957;49.434;8.684;2022-08-21T07:00:23;4.93;;;3.45;;
24897;SDS011;12957;49.434;8.684;2022-08-21T07:02:49;6.82;;;3.50;;
24897;SDS011;12957;49.434;8.684;2022-08-21T07:05:14;6.25;;;3.85;;
24897;SDS011;12957;49.434;8.684;2022-08-21T07:07:40;4.43;;;3.33;;
24897;SDS011;12957;49.434;8.684;2022-08-21T07:10:05;6.15;;;3.70;;
24897;SDS011;12957;49.434;8.684;2022-08-21T07:12:31;5.25;;;3.50;;
24897;SDS011;12957;49.434;8.684;2022-08-21T07:14:57;6.40;;;3.85;;
24897;SDS011;12957;49.434;8.684;2022-08-21T07:17:23;10.55;;;3.75;;
24897;SDS011;12957;49.434;8.684;2022-08-21T07:19:48;5.68;;;3.05;;
24897;SDS011;12957;49.434;8.684;2022-08-21T07:22:16;8.43;;;3.42;;
24897;SDS011;12957;49.434;8.684;2022-08-21T07:24:43;4.65;;;3.28;;
24897;SDS011;12957;49.434;8.684;2022-08-21T07:27:09;5.80;;;4.10;;
24897;SDS011;12957;49.434;8.684;2022-08-21T07:29:34;11.82;;;3.88;;
24897;SDS011;12957;49.434;8.684;2022-08-21T07:32:00;9.38;;;3.97;;
24897;SDS011;12957;49.434;8.684;2022-08-21T07:34:25;5.97;;;3.45;;
24897;SDS011;12957;49.434;8.684;2022-08-21T07:36:51;7.03;;;3.50;;
24897;SDS011;12957;49.434;8.684;2022-08-21T07:39:17;4.95;;;2.92;;
24897;SDS011;12957;49.434;8.684;2022-08-21T07:41:42;6.32;;;3.70;;
24897;SDS011;12957;49.434;8.684;2022-08-21T07:44:08;10.82;;;3.35;;
24897;SDS011;12957;49.434;8.684;2022-08-21T07:46:33;9.57;;;3.70;;
24897;SDS011;12957;49.434;8.684;2022-08-21T07:48:59;6.88;;;3.17;;
24897;SDS011;12957;49.434;8.684;2022-08-21T07:51:25;4.63;;;3.15;;
24897;SDS011;12957;49.434;8.684;2022-08-21T07:53:52;7.22;;;3.42;;
24897;SDS011;12957;49.434;8.684;2022-08-21T07:56:19;5.80;;;3.55;;
24897;SDS011;12957;49.434;8.684;2022-08-21T07:58:45;8.05;;;3.10;;
24897;SDS011;12957;49.434;8.684;2022-08-21T08:01:10;4.85;;;3.30;;
24897;SDS011;12957;49.434;8.684;2022-08-21T08:03:36;6.63;;;3.58;;
24897;SDS011;12957;49.434;8.684;2022-08-21T08:06:02;7.65;;;3.50;;
24897;SDS011;12957;49.434;8.684;2022-08-21T08:08:29;7.20;;;3.42;;
24897;SDS011;12957;49.434;8.684;2022-08-21T08:10:55;6.60;;;3.45;;
24897;SDS011;12957;49.434;8.684;2022-08-21T08:13:22;7.55;;;3.72;;
24897;SDS011;12957;49.434;8.684;2022-08-21T08:15:47;5.65;;;3.40;;
24897;SDS011;12957;49.434;8.684;2022-08-21T08:18:13;5.78;;;3.25;;
24897;SDS011;12957;49.434;8.684;2022-08-21T08:20:38;5.85;;;3.85;;
24897;SDS011;12957;49.434;8.684;2022-08-21T08:23:04;6.57;;;3.97;;
24897;SDS011;12957;49.434;8.684;2022-08-21T08:25:30;10.27;;;4.30;;
24897;SDS011;12957;49.434;8.684;2022-08-21T08:27:56;9.55;;;3.95;;
24897;SDS011;12957;49.434;8.684;2022-08-21T08:30:21;6.80;;;3.90;;
24897;SDS011;12957;49.434;8.684;2022-08-21T08:32:48;6.13;;;4.20;;
24897;SDS011;12957;49.434;8.684;2022-08-21T08:35:14;7.55;;;3.90;;
24897;SDS011;12957;49.434;8.684;2022-08-21T08:37:41;7.75;;;3.80;;
24897;SDS011;12957;49.434;8.684;2022-08-21T08:40:12;5.60;;;3.65;;
24897;SDS011;12957;49.434;8.684;2022-08-21T08:42:39;6.43;;;3.38;;
24897;SDS011;12957;49.434;8.684;2022-08-21T08:45:06;8.60;;;4.20;;
24897;SDS011;12957;49.434;8.684;2022-08-21T08:47:35;7.38;;;3.47;;
24897;SDS011;12957;49.434;8.684;2022-08-21T08:50:04;8.80;;;4.07;;
24897;SDS011;12957;49.434;8.684;2022-08-21T08:52:33;4.53;;;3.85;;
24897;SDS011;12957;49.434;8.684;2022-08-21T08:55:08;4.85;;;3.78;;
24897;SDS011;12957;49.434;8.684;2022-08-21T08:57:42;11.25;;;4.30;;
24897;SDS011;12957;49.434;8.684;2022-08-21T09:00:12;4.93;;;3.63;;
24897;SDS011;12957;49.434;8.684;2022-08-21T09:02:39;4.43;;;3.45;;
24897;SDS011;12957;49.434;8.684;2022-08-21T09:05:06;7.75;;;3.95;;
24897;SDS011;12957;49.434;8.684;2022-08-21T09:10:43;9.23;;;4.05;;
24897;SDS011;12957;49.434;8.684;2022-08-21T09:14:08;7.47;;;4.13;;
24897;SDS011;12957;49.434;8.684;2022-08-21T09:16:24;7.85;;;3.95;;
24897;SDS011;12957;49.434;8.684;2022-08-21T09:21:41;6.82;;;3.63;;
24897;SDS011;12957;49.434;8.684;2022-08-21T09:27:06;5.32;;;3.72;;
24897;SDS011;12957;49.434;8.684;2022-08-21T09:29:35;7.07;;;3.65;;
24897;SDS011;12957;49.434;8.684;2022-08-21T09:32:04;7.43;;;3.65;;
24897;SDS011;12957;49.434;8.684;2022-08-21T09:34:36;8.40;;;4.38;;
24897;SDS011;12957;49.434;8.684;2022-08-21T09:37:01;5.70;;;3.65;;
24897;SDS011;12957;49.434;8.684;2022-08-21T09:39:37;8.15;;;3.83;;
24897;SDS011;12957;49.434;8.684;2022-08-21T09:42:04;4.78;;;3.03;;
24897;SDS011;12957;49.434;8.684;2022-08-21T09:44:32;6.28;;;3.30;;
24897;SDS011;12957;49.434;8.684;2022-08-21T09:47:04;6.22;;;3.58;;
24897;SDS011;12957;49.434;8.684;2022-08-21T09:49:30;8.18;;;3.38;;
24897;SDS011;12957;49.434;8.684;2022-08-21T09:52:00;4.50;;;3.47;;
24897;SDS011;12957;49.434;8.684;2022-08-21T09:54:35;6.03;;;3.42;;
24897;SDS011;12957;49.434;8.684;2022-08-21T09:59:53;5.82;;;2.92;;
24897;SDS011;12957;49.434;8.684;2022-08-21T10:02:23;9.55;;;2.70;;
24897;SDS011;12957;49.434;8.684;2022-08-21T10:04:52;5.13;;;2.90;;
24897;SDS011;12957;49.434;8.684;2022-08-21T10:07:24;6.68;;;3.03;;
24897;SDS011;12957;49.434;8.684;2022-08-21T10:09:58;5.65;;;3.38;;
24897;SDS011;12957;49.434;8.684;2022-08-21T10:13:16;7.15;;;3.17;;
24897;SDS011;12957;49.434;8.684;2022-08-21T10:18:21;9.52;;;2.83;;
24897;SDS011;12957;49.434;8.684;2022-08-21T10:20:58;10.85;;;2.97;;
24897;SDS011;12957;49.434;8.684;2022-08-21T10:29:03;9.57;;;3.53;;
24897;SDS011;12957;49.434;8.684;2022-08-21T10:39:20;5.68;;;2.83;;
24897;SDS011;12957;49.434;8.684;2022-08-21T10:44:58;8.60;;;3.20;;
24897;SDS011;12957;49.434;8.684;2022-08-21T10:47:35;7.38;;;2.95;;
24897;SDS011;12957;49.434;8.684;2022-08-21T10:50:12;7.20;;;3.30;;
24897;SDS011;12957;49.434;8.684;2022-08-21T10:52:54;11.68;;;3.55;;
24897;SDS011;12957;49.434;8.684;2022-08-21T10:55:34;7.13;;;3.17;;
24897;SDS011;12957;49.434;8.684;2022-08-21T11:03:11;5.20;;;3.05;;
24897;SDS011;12957;49.434;8.684;2022-08-21T11:05:41;4.68;;;2.85;;
24897;SDS011;12957;49.434;8.684;2022-08-21T11:08:14;6.75;;;3.42;;
24897;SDS011;12957;49.434;8.684;2022-08-21T11:10:44;6.50;;;3.05;;
24897;SDS011;12957;49.434;8.684;2022-08-21T11:13:14;8.45;;;3.40;;
24897;SDS011;12957;49.434;8.684;2022-08-21T11:15:55;5.25;;;3.00;;
24897;SDS011;12957;49.434;8.684;2022-08-21T11:18:31;8.63;;;3.08;;
24897;SDS011;12957;49.434;8.684;2022-08-21T11:21:01;7.53;;;3.30;;
24897;SDS011;12957;49.434;8.684;2022-08-21T11:26:18;6.07;;;3.38;;
24897;SDS011;12957;49.434;8.684;2022-08-21T11:28:58;4.25;;;3.03;;
24897;SDS011;12957;49.434;8.684;2022-08-21T11:31:44;8.32;;;3.20;;
24897;SDS011;12957;49.434;8.684;2022-08-21T11:34:20;6.45;;;3.03;;
24897;SDS011;12957;49.434;8.684;2022-08-21T11:36:58;3.35;;;2.67;;
24897;SDS011;12957;49.434;8.684;2022-08-21T11:42:19;11.43;;;3.60;;
24897;SDS011;12957;49.434;8.684;2022-08-21T11:44:56;4.25;;;3.10;;
24897;SDS011;12957;49.434;8.684;2022-08-21T11:50:39;7.32;;;3.10;;
24897;SDS011;12957;49.434;8.684;2022-08-21T11:55:51;5.07;;;3.15;;
24897;SDS011;12957;49.434;8.684;2022-08-21T12:00:56;4.00;;;2.80;;
24897;SDS011;12957;49.434;8.684;2022-08-21T12:03:44;8.65;;;3.00;;
24897;SDS011;12957;49.434;8.684;2022-08-21T12:14:39;6.57;;;3.00;;
24897;SDS011;12957;49.434;8.684;2022-08-21T12:17:07;7.20;;;2.90;;
24897;SDS011;12957;49.434;8.684;2022-08-21T12:19:34;6.28;;;2.75;;
24897;SDS011;12957;49.434;8.684;2022-08-21T12:27:30;6.15;;;2.92;;
24897;SDS011;12957;49.434;8.684;2022-08-21T12:30:17;6.60;;;2.78;;
24897;SDS011;12957;49.434;8.684;2022-08-21T12:33:04;5.72;;;3.05;;
24897;SDS011;12957;49.434;8.684;2022-08-21T12:35:42;7.63;;;3.08;;
24897;SDS011;12957;49.434;8.684;2022-08-21T12:43:27;3.65;;;2.25;;
24897;SDS011;12957;49.434;8.684;2022-08-21T12:45:55;2.80;;;2.40;;
24897;SDS011;12957;49.434;8.684;2022-08-21T12:48:33;7.53;;;2.92;;
24897;SDS011;12957;49.434;8.684;2022-08-21T12:53:45;6.13;;;2.72;;
24897;SDS011;12957;49.434;8.684;2022-08-21T12:56:13;5.38;;;3.28;;
24897;SDS011;12957;49.434;8.684;2022-08-21T12:58:41;3.45;;;2.45;;
24897;SDS011;12957;49.434;8.684;2022-08-21T13:01:30;7.20;;;3.17;;
24897;SDS011;12957;49.434;8.684;2022-08-21T13:04:07;9.30;;;3.15;;
24897;SDS011;12957;49.434;8.684;2022-08-21T13:06:39;7.07;;;2.75;;
24897;SDS011;12957;49.434;8.684;2022-08-21T13:09:07;5.22;;;2.88;;
24897;SDS011;12957;49.434;8.684;2022-08-21T13:11:35;7.45;;;3.10;;
24897;SDS011;12957;49.434;8.684;2022-08-21T13:14:02;4.70;;;2.80;;
24897;SDS011;12957;49.434;8.684;2022-08-21T13:16:28;5.60;;;2.80;;
24897;SDS011;12957;49.434;8.684;2022-08-21T13:18:59;5.13;;;2.63;;
24897;SDS011;12957;49.434;8.684;2022-08-21T13:21:30;4.63;;;2.50;;
24897;SDS011;12957;49.434;8.684;2022-08-21T13:24:08;5.70;;;2.70;;
24897;SDS011;12957;49.434;8.684;2022-08-21T13:26:35;3.22;;;2.42;;
24897;SDS011;12957;49.434;8.684;2022-08-21T13:29:06;5.60;;;2.53;;
24897;SDS011;12957;49.434;8.684;2022-08-21T13:31:33;7.25;;;2.92;;
24897;SDS011;12957;49.434;8.684;2022-08-21T13:33:58;5.35;;;3.05;;
24897;SDS011;12957;49.434;8.684;2022-08-21T13:36:25;5.60;;;2.67;;
24897;SDS011;12957;49.434;8.684;2022-08-21T13:38:53;4.25;;;2.60;;
24897;SDS011;12957;49.434;8.684;2022-08-21T13:41:21;5.28;;;2.83;;
24897;SDS011;12957;49.434;8.684;2022-08-21T13:44:04;6.43;;;2.70;;
24897;SDS011;12957;49.434;8.684;2022-08-21T13:46:38;5.93;;;2.75;;
24897;SDS011;12957;49.434;8.684;2022-08-21T13:49:04;4.32;;;2.60;;
24897;SDS011;12957;49.434;8.684;2022-08-21T13:51:30;5.05;;;2.85;;
24897;SDS011;12957;49.434;8.684;2022-08-21T13:53:57;6.80;;;2.90;;
24897;SDS011;12957;49.434;8.684;2022-08-21T13:58:51;5.55;;;2.90;;
24897;SDS011;12957;49.434;8.684;2022-08-21T14:01:36;4.65;;;2.85;;
24897;SDS011;12957;49.434;8.684;2022-08-21T14:06:44;9.20;;;3.10;;
24897;SDS011;12957;49.434;8.684;2022-08-21T14:09:10;5.93;;;2.80;;
24897;SDS011;12957;49.434;8.684;2022-08-21T14:11:58;9.55;;;2.80;;
24897;SDS011;12957;49.434;8.684;2022-08-21T14:14:27;6.57;;;2.85;;
24897;SDS011;12957;49.434;8.684;2022-08-21T14:16:56;5.25;;;2.75;;
24897;SDS011;12957;49.434;8.684;2022-08-21T14:19:28;3.47;;;2.80;;
24897;SDS011;12957;49.434;8.684;2022-08-21T14:25:06;5.93;;;2.72;;
24897;SDS011;12957;49.434;8.684;2022-08-21T14:27:34;6.65;;;3.33;;
24897;SDS011;12957;49.434;8.684;2022-08-21T14:33:00;7.90;;;2.92;;
24897;SDS011;12957;49.434;8.684;2022-08-21T14:35:26;5.75;;;2.67;;
24897;SDS011;12957;49.434;8.684;2022-08-21T14:37:52;7.32;;;2.88;;
24897;SDS011;12957;49.434;8.684;2022-08-21T14:40:19;7.20;;;3.20;;
24897;SDS011;12957;49.434;8.684;2022-08-21T14:42:46;9.60;;;2.97;;
24897;SDS011;12957;49.434;8.684;2022-08-21T14:45:28;3.50;;;2.70;;
24897;SDS011;12957;49.434;8.684;2022-08-21T14:47:55;4.88;;;2.72;;
24897;SDS011;12957;49.434;8.684;2022-08-21T14:50:21;4.00;;;2.63;;
24897;SDS011;12957;49.434;8.684;2022-08-21T14:52:46;5.43;;;2.88;;
24897;SDS011;12957;49.434;8.684;2022-08-21T14:55:13;4.32;;;2.58;;
24897;SDS011;12957;49.434;8.684;2022-08-21T14:57:39;5.13;;;2.88;;
24897;SDS011;12957;49.434;8.684;2022-08-21T15:00:08;5.45;;;2.58;;
24897;SDS011;12957;49.434;8.684;2022-08-21T15:02:34;4.07;;;2.67;;
24897;SDS011;12957;49.434;8.684;2022-08-21T15:05:00;10.75;;;3.10;;
24897;SDS011;12957;49.434;8.684;2022-08-21T15:07:25;6.65;;;2.70;;
24897;SDS011;12957;49.434;8.684;2022-08-21T15:09:51;5.47;;;2.60;;
24897;SDS011;12957;49.434;8.684;2022-08-21T15:12:16;6.70;;;2.50;;
24897;SDS011;12957;49.434;8.684;2022-08-21T15:14:42;3.58;;;2.45;;
24897;SDS011;12957;49.434;8.684;2022-08-21T15:17:08;6.25;;;2.83;;
24897;SDS011;12957;49.434;8.684;2022-08-21T15:19:34;3.72;;;2.65;;
24897;SDS011;12957;49.434;8.684;2022-08-21T15:22:00;5.97;;;2.42;;
24897;SDS011;12957;49.434;8.684;2022-08-21T15:24:26;5.50;;;2.58;;
24897;SDS011;12957;49.434;8.684;2022-08-21T15:26:52;3.80;;;2.42;;
24897;SDS011;12957;49.434;8.684;2022-08-21T15:29:18;8.18;;;2.83;;
24897;SDS011;12957;49.434;8.684;2022-08-21T15:31:54;4.90;;;2.42;;
24897;SDS011;12957;49.434;8.684;2022-08-21T15:34:25;3.28;;;2.38;;
24897;SDS011;12957;49.434;8.684;2022-08-21T15:36:52;7.25;;;2.58;;
24897;SDS011;12957;49.434;8.684;2022-08-21T15:39:18;3.95;;;2.80;;
24897;SDS011;12957;49.434;8.684;2022-08-21T15:41:43;4.63;;;2.40;;
24897;SDS011;12957;49.434;8.684;2022-08-21T15:44:10;5.95;;;2.42;;
24897;SDS011;12957;49.434;8.684;2022-08-21T15:46:36;5.43;;;2.75;;
24897;SDS011;12957;49.434;8.684;2022-08-21T15:49:02;6.85;;;2.90;;
24897;SDS011;12957;49.434;8.684;2022-08-21T15:51:28;4.95;;;2.63;;
24897;SDS011;12957;49.434;8.684;2022-08-21T15:53:53;6.80;;;2.80;;
24897;SDS011;12957;49.434;8.684;2022-08-21T15:56:24;4.97;;;2.78;;
24897;SDS011;12957;49.434;8.684;2022-08-21T15:58:51;5.97;;;2.70;;
24897;SDS011;12957;49.434;8.684;2022-08-21T16:01:18;6.43;;;2.67;;
24897;SDS011;12957;49.434;8.684;2022-08-21T16:03:45;11.30;;;2.95;;
24897;SDS011;12957;49.434;8.684;2022-08-21T16:06:13;8.48;;;2.75;;
24897;SDS011;12957;49.434;8.684;2022-08-21T16:08:38;6.72;;;2.75;;
24897;SDS011;12957;49.434;8.684;2022-08-21T16:11:04;6.90;;;2.60;;
24897;SDS011;12957;49.434;8.684;2022-08-21T16:13:32;5.53;;;2.95;;
24897;SDS011;12957;49.434;8.684;2022-08-21T16:16:01;6.07;;;2.80;;
24897;SDS011;12957;49.434;8.684;2022-08-21T16:18:27;4.25;;;2.70;;